This is the latest recevied weather packets stored in our database for station/object W3TMB. If no packets are shown the sender has not sent any weather packets the latest 10 day(s).
| Time | Temp. | Humidity | Pressure | Rain* | Wind** | Luminosity | Snow |
|---|---|---|---|---|---|---|---|
| 1777985185 | 16.67° C | 80% | 1006 hPa | 0 mm | - | 305 W/m² | - |
| 1777984882 | 16.11° C | 84% | 1006.4 hPa | 0 mm | - | 254 W/m² | - |
| 1777984578 | 15° C | 87% | 1006.2 hPa | 0 mm | - | 243 W/m² | - |
| 1777984275 | 13.89° C | 92% | 1006.4 hPa | 0 mm | - | 244 W/m² | - |
| 1777983971 | 12.78° C | 94% | 1006.3 hPa | 0 mm | - | 236 W/m² | - |
| 1777983669 | 12.78° C | 96% | 1006.5 hPa | 0 mm | - | 207 W/m² | - |
| 1777983365 | 12.22° C | 98% | 1006.6 hPa | 0 mm | - | 208 W/m² | - |
| 1777983062 | 11.67° C | 98% | 1006.5 hPa | 0 mm | - | 95 W/m² | - |
| 1777982758 | 11.67° C | 98% | 1006.5 hPa | 0 mm | - | 63 W/m² | - |
| 1777982454 | 11.67° C | 98% | 1006.4 hPa | 0 mm | - | 50 W/m² | - |
| 1777982148 | 11.67° C | 98% | 1006.2 hPa | 0 mm | - | 31 W/m² | - |
| 1777981846 | 11.67° C | 98% | 1006.7 hPa | 0 mm | - | 30 W/m² | - |
| 1777981543 | 11.11° C | 98% | 1006.3 hPa | 0 mm | - | 29 W/m² | - |
| 1777981239 | 11.11° C | 98% | 1006.4 hPa | 0 mm | - | 39 W/m² | - |
| 1777980936 | 11.11° C | 98% | 1006.4 hPa | 0 mm | - | 44 W/m² | - |
| 1777980632 | 11.11° C | 99% | 1006.4 hPa | 0 mm | - | 69 W/m² | - |
| 1777980329 | 10.56° C | 99% | 1006.2 hPa | 0 mm | - | 100 W/m² | - |
| 1777980027 | 10.56° C | 99% | 1006.4 hPa | 0 mm | - | 70 W/m² | - |
| 1777979720 | 10.56° C | 99% | 1006.3 hPa | 0 mm | - | 41 W/m² | - |
| 1777979417 | 10.56° C | 99% | 1006.1 hPa | 0 mm | - | 36 W/m² | - |
| 1777979114 | 10.56° C | 99% | 1006 hPa | 0 mm | - | 26 W/m² | - |
| 1777978810 | 10.56° C | 99% | 1006 hPa | 0 mm | - | 21 W/m² | - |
| 1777978507 | 10.56° C | 99% | 1005.9 hPa | 0 mm | - | 12 W/m² | - |
| 1777978203 | 10.56° C | 99% | 1005.9 hPa | 0 mm | - | 10 W/m² | - |
| 1777977900 | 10.56° C | 99% | 1005.7 hPa | 0 mm | - | 12 W/m² | - |
* Rain latest hour (hover to see other rain measurements)
** Current wind speed in m/s (hover to see current wind gust speed)